Time;durP1;ratioP1;P1;durP2;ratioP2;P2;SDS_P1;SDS_P2;PMS_P1;PMS_P2;Temp;Humidity;BMP_temperature;BMP_pressure;BME280_temperature;BME280_humidity;BME280_pressure;Samples;Min_cycle;Max_cycle;Signal;HPM_P1;HPM_P2
2021/03/06 00:00:36;;;;;;;7.40;3.35;;;1.60;99.90;;;;;;6272812;22;20014;-70
2021/03/06 00:03:02;;;;;;;7.70;3.58;;;1.60;99.90;;;;;;6274427;22;20078;-71
2021/03/06 00:05:28;;;;;;;7.63;3.65;;;1.60;99.90;;;;;;6271311;22;19996;-72
2021/03/06 00:07:54;;;;;;;4.78;3.75;;;1.60;99.90;;;;;;6270564;22;20065;-68
2021/03/06 00:10:20;;;;;;;5.28;3.53;;;1.60;99.90;;;;;;6275192;22;20082;-71
2021/03/06 00:12:47;;;;;;;7.55;3.67;;;1.60;99.90;;;;;;6273055;22;20409;-69
2021/03/06 00:15:17;;;;;;;9.50;3.80;;;1.60;99.90;;;;;;6273914;22;20031;-71
2021/03/06 00:17:43;;;;;;;7.65;3.25;;;1.60;99.90;;;;;;6273168;22;20054;-71
2021/03/06 00:20:10;;;;;;;7.28;3.63;;;1.60;99.90;;;;;;6274803;22;19999;-71
2021/03/06 00:22:35;;;;;;;6.68;3.60;;;1.60;99.90;;;;;;6265679;22;20018;-70
2021/03/06 00:25:04;;;;;;;8.70;4.50;;;1.50;99.90;;;;;;6271932;22;20443;-69
2021/03/06 00:27:29;;;;;;;7.93;4.30;;;1.60;99.90;;;;;;6269864;22;20004;-71
2021/03/06 00:29:55;;;;;;;7.75;4.22;;;1.50;99.90;;;;;;6269906;22;20014;-71
2021/03/06 00:32:20;;;;;;;6.75;4.60;;;1.60;99.90;;;;;;6274522;22;20056;-72
2021/03/06 00:34:46;;;;;;;8.50;4.13;;;1.60;99.90;;;;;;6274250;22;20010;-71
2021/03/06 00:37:12;;;;;;;11.52;5.05;;;1.50;99.90;;;;;;6274063;22;20006;-69
2021/03/06 00:39:37;;;;;;;6.57;4.60;;;1.50;99.90;;;;;;6274483;22;20003;-71
2021/03/06 00:42:03;;;;;;;13.60;4.60;;;1.50;99.90;;;;;;6274907;22;20059;-69
2021/03/06 00:44:29;;;;;;;8.88;4.82;;;1.50;99.90;;;;;;6271149;22;20018;-68
2021/03/06 00:46:56;;;;;;;12.82;4.50;;;1.50;99.90;;;;;;6271420;22;20007;-68
2021/03/06 00:49:22;;;;;;;8.52;4.75;;;1.50;99.90;;;;;;6273852;22;20098;-68
2021/03/06 00:51:48;;;;;;;8.02;4.78;;;1.40;99.90;;;;;;6273243;22;19996;-68
2021/03/06 00:54:14;;;;;;;8.15;5.18;;;1.40;99.90;;;;;;6269484;22;20015;-68
2021/03/06 00:56:39;;;;;;;9.38;5.07;;;1.30;99.90;;;;;;6273549;22;20087;-67
2021/03/06 00:59:05;;;;;;;10.80;5.30;;;1.30;99.90;;;;;;6273721;22;20027;-68
2021/03/06 01:01:31;;;;;;;13.18;4.90;;;1.40;99.90;;;;;;6273723;22;20014;-68
2021/03/06 01:03:57;;;;;;;11.25;5.18;;;1.30;99.90;;;;;;6271609;22;20000;-68
2021/03/06 01:06:23;;;;;;;12.57;4.50;;;1.30;99.90;;;;;;6273329;22;20340;-68
2021/03/06 01:08:48;;;;;;;9.50;4.50;;;1.30;99.90;;;;;;6272954;22;20036;-71
2021/03/06 01:11:14;;;;;;;14.48;5.30;;;1.30;99.90;;;;;;6274185;22;20053;-72
2021/03/06 01:13:40;;;;;;;10.30;5.40;;;1.30;99.90;;;;;;6273612;22;20779;-71
2021/03/06 01:16:06;;;;;;;10.77;4.75;;;1.40;99.90;;;;;;6273584;22;20001;-71
2021/03/06 01:18:32;;;;;;;8.90;5.30;;;1.40;99.90;;;;;;6273202;22;20055;-71
2021/03/06 01:20:57;;;;;;;10.50;5.80;;;1.30;99.90;;;;;;6271979;22;19999;-70
2021/03/06 01:23:23;;;;;;;10.98;5.32;;;1.30;99.90;;;;;;6271595;22;20083;-71
2021/03/06 01:25:49;;;;;;;10.20;5.25;;;1.30;99.90;;;;;;6273615;22;20000;-71
2021/03/06 01:28:14;;;;;;;8.05;4.82;;;1.40;99.90;;;;;;6273780;22;20023;-69
2021/03/06 01:30:40;;;;;;;9.40;5.63;;;1.30;99.90;;;;;;6274499;22;20378;-67
2021/03/06 01:33:06;;;;;;;11.13;5.60;;;1.20;99.90;;;;;;6273328;22;20014;-68
2021/03/06 01:35:33;;;;;;;11.63;6.00;;;1.20;99.90;;;;;;6273888;22;20000;-67
2021/03/06 01:37:59;;;;;;;9.85;5.43;;;1.20;99.90;;;;;;6274332;22;20008;-67
2021/03/06 01:40:28;;;;;;;10.98;6.72;;;1.10;99.90;;;;;;6274352;22;20359;-67
2021/03/06 01:42:54;;;;;;;10.20;6.22;;;1.20;99.90;;;;;;6274140;22;20023;-69
2021/03/06 01:45:20;;;;;;;10.25;6.85;;;1.30;99.90;;;;;;6269304;22;20031;-67
2021/03/06 01:47:45;;;;;;;7.82;6.03;;;1.20;99.90;;;;;;6269626;22;20346;-67
2021/03/06 01:50:18;;;;;;;9.13;5.93;;;1.10;99.90;;;;;;6271264;22;20008;-68
2021/03/06 01:52:44;;;;;;;10.52;5.32;;;1.10;99.90;;;;;;6272352;22;20023;-67
2021/03/06 01:55:10;;;;;;;11.45;6.13;;;1.10;99.90;;;;;;6270282;22;20007;-68
2021/03/06 01:57:35;;;;;;;14.38;6.40;;;1.10;99.90;;;;;;6270393;22;20015;-68
2021/03/06 02:00:03;;;;;;;13.88;7.13;;;1.00;99.90;;;;;;6273883;22;20003;-69
2021/03/06 02:02:29;;;;;;;9.10;6.25;;;1.00;99.90;;;;;;6271797;22;20094;-68
2021/03/06 02:04:55;;;;;;;12.52;7.13;;;1.00;99.90;;;;;;6270553;22;20424;-67
2021/03/06 02:07:21;;;;;;;10.05;6.45;;;0.90;99.90;;;;;;6271328;22;20011;-67
2021/03/06 02:09:46;;;;;;;8.93;5.70;;;0.90;99.90;;;;;;6271576;22;20014;-67
2021/03/06 02:12:19;;;;;;;16.38;6.25;;;0.90;99.90;;;;;;6273497;22;20019;-68
2021/03/06 02:15:23;;;;;;;14.70;6.03;;;0.80;99.90;;;;;;6273039;22;20035;-68
2021/03/06 02:18:02;;;;;;;9.13;5.80;;;0.90;99.90;;;;;;6146652;23;20351;-67
2021/03/06 02:20:44;;;;;;;10.27;5.80;;;0.90;99.90;;;;;;6256545;22;20004;-68
2021/03/06 02:23:35;;;;;;;12.18;6.00;;;0.90;99.90;;;;;;6272995;22;20015;-68
2021/03/06 02:26:15;;;;;;;12.50;6.50;;;0.80;99.90;;;;;;6272539;22;20340;-68
2021/03/06 02:29:18;;;;;;;12.18;6.28;;;0.80;99.90;;;;;;6270750;22;20407;-68
2021/03/06 02:31:46;;;;;;;15.02;7.32;;;0.80;99.90;;;;;;6272235;22;20109;-68
2021/03/06 02:34:16;;;;;;;17.38;7.57;;;0.80;99.90;;;;;;6273268;22;20003;-68
2021/03/06 02:36:52;;;;;;;12.23;6.57;;;0.70;99.90;;;;;;6272846;22;20000;-68
2021/03/06 02:39:21;;;;;;;13.32;7.78;;;0.80;99.90;;;;;;6271487;22;19999;-67
2021/03/06 02:41:49;;;;;;;16.27;7.88;;;0.80;99.90;;;;;;6273504;22;20007;-67
2021/03/06 02:44:18;;;;;;;11.98;7.00;;;0.80;99.90;;;;;;6272132;22;20007;-67
2021/03/06 02:46:45;;;;;;;10.85;7.00;;;0.70;99.90;;;;;;6271576;22;20003;-68
2021/03/06 02:49:11;;;;;;;9.95;6.18;;;0.70;99.90;;;;;;6271424;22;20019;-68
2021/03/06 02:51:38;;;;;;;16.90;7.55;;;0.70;99.90;;;;;;6273179;22;19999;-67
2021/03/06 02:54:04;;;;;;;12.68;7.25;;;0.70;99.90;;;;;;6269562;22;20010;-71
2021/03/06 02:56:30;;;;;;;16.33;7.13;;;0.70;99.90;;;;;;6269959;22;20368;-68
2021/03/06 02:58:55;;;;;;;18.20;7.63;;;0.60;99.90;;;;;;6272297;22;20004;-70
2021/03/06 03:01:46;;;;;;;16.20;7.60;;;0.70;99.90;;;;;;6272816;22;20050;-68
2021/03/06 03:04:22;;;;;;;14.20;6.68;;;0.60;99.90;;;;;;6269939;22;20011;-69
2021/03/06 03:06:50;;;;;;;10.70;7.18;;;0.60;99.90;;;;;;6271669;22;20010;-71
2021/03/06 03:09:24;;;;;;;11.75;7.28;;;0.60;99.90;;;;;;6272443;22;20008;-70
2021/03/06 03:12:14;;;;;;;13.40;7.32;;;0.60;99.90;;;;;;6272923;22;20467;-69
2021/03/06 03:15:05;;;;;;;12.52;7.55;;;0.60;99.90;;;;;;6272827;22;20008;-70
2021/03/06 03:17:45;;;;;;;15.30;7.47;;;0.60;99.90;;;;;;6272483;22;20012;-69
2021/03/06 03:20:23;;;;;;;13.63;7.43;;;0.60;99.90;;;;;;6272884;22;20421;-71
2021/03/06 03:22:53;;;;;;;13.15;7.53;;;0.60;99.90;;;;;;6272768;22;20512;-70
2021/03/06 03:25:20;;;;;;;11.73;7.45;;;0.60;99.90;;;;;;6271732;22;20040;-67
2021/03/06 03:27:47;;;;;;;13.23;7.93;;;0.60;99.90;;;;;;6272324;22;20087;-67
2021/03/06 03:30:16;;;;;;;11.70;7.28;;;0.60;99.90;;;;;;6272832;22;20018;-67
2021/03/06 03:32:47;;;;;;;16.83;7.60;;;0.50;99.90;;;;;;6272453;22;20000;-67
2021/03/06 03:35:19;;;;;;;11.95;6.40;;;0.40;99.90;;;;;;6272555;22;20063;-67
2021/03/06 03:37:48;;;;;;;13.98;7.20;;;0.40;99.90;;;;;;6271323;22;20006;-68
2021/03/06 03:40:17;;;;;;;11.85;7.40;;;0.40;99.90;;;;;;6272843;22;20011;-67
2021/03/06 03:42:43;;;;;;;12.73;7.57;;;0.50;99.90;;;;;;6274438;22;19999;-68
2021/03/06 03:45:11;;;;;;;14.80;6.50;;;0.40;99.90;;;;;;6269909;22;20030;-67
2021/03/06 03:47:39;;;;;;;9.23;6.40;;;0.40;99.90;;;;;;6273247;22;20058;-67
2021/03/06 03:50:08;;;;;;;14.85;7.20;;;0.50;99.90;;;;;;6274581;22;20034;-67
2021/03/06 03:52:42;;;;;;;18.55;7.03;;;0.50;99.90;;;;;;6274507;22;20049;-68
2021/03/06 03:55:09;;;;;;;13.20;6.05;;;0.40;99.90;;;;;;6266954;22;20011;-67
2021/03/06 03:57:36;;;;;;;12.13;6.40;;;0.40;99.90;;;;;;6272956;22;20007;-67
2021/03/06 04:00:07;;;;;;;11.90;6.28;;;0.40;99.90;;;;;;6272937;22;20003;-67
2021/03/06 04:02:33;;;;;;;14.10;7.00;;;0.40;99.90;;;;;;6272608;22;20011;-67
2021/03/06 04:04:58;;;;;;;14.30;7.28;;;0.30;99.90;;;;;;6272496;22;20000;-67
2021/03/06 04:07:24;;;;;;;12.48;6.95;;;0.30;99.90;;;;;;6272952;22;20075;-67
2021/03/06 04:09:50;;;;;;;14.35;8.07;;;0.30;99.90;;;;;;6273730;22;20015;-67
2021/03/06 04:12:16;;;;;;;12.45;7.22;;;0.30;99.90;;;;;;6274017;22;19996;-67
2021/03/06 04:14:42;;;;;;;14.35;7.47;;;0.30;99.90;;;;;;6272446;22;20061;-67
2021/03/06 04:17:08;;;;;;;10.85;6.85;;;0.30;99.90;;;;;;6274547;22;20057;-68
2021/03/06 04:19:34;;;;;;;16.42;7.03;;;0.30;99.90;;;;;;6274128;22;20003;-66
2021/03/06 04:22:00;;;;;;;14.15;6.90;;;0.30;99.90;;;;;;6273729;22;20034;-67
2021/03/06 04:24:25;;;;;;;17.65;7.35;;;0.30;99.90;;;;;;6273184;22;20036;-67
2021/03/06 04:26:51;;;;;;;14.40;7.63;;;0.30;99.90;;;;;;6271954;22;20011;-67
2021/03/06 04:29:18;;;;;;;13.27;7.05;;;0.30;99.90;;;;;;6271543;22;20104;-68
2021/03/06 04:31:44;;;;;;;12.00;6.85;;;0.20;99.90;;;;;;6273270;22;20062;-68
2021/03/06 04:34:11;;;;;;;13.43;6.25;;;0.30;99.90;;;;;;6270354;22;20003;-68
2021/03/06 04:36:36;;;;;;;11.95;6.93;;;0.20;99.90;;;;;;6273689;22;19996;-68
2021/03/06 04:39:03;;;;;;;11.45;6.65;;;0.30;99.90;;;;;;6273856;22;20061;-69
2021/03/06 04:41:29;;;;;;;12.80;7.10;;;0.20;99.90;;;;;;6271410;22;20007;-67
2021/03/06 04:43:54;;;;;;;17.15;7.35;;;0.20;99.90;;;;;;6273381;22;20003;-67
2021/03/06 04:46:21;;;;;;;9.95;6.70;;;0.20;99.90;;;;;;6274363;22;20004;-67
2021/03/06 04:48:46;;;;;;;11.05;6.95;;;0.20;99.90;;;;;;6272857;22;20065;-68
2021/03/06 04:51:12;;;;;;;20.48;9.25;;;0.20;99.90;;;;;;6273900;22;20003;-67
2021/03/06 04:53:38;;;;;;;12.18;6.70;;;0.20;99.90;;;;;;6270874;22;20023;-68
2021/03/06 04:56:04;;;;;;;13.35;7.45;;;0.20;99.90;;;;;;6273111;22;20416;-67
2021/03/06 04:58:29;;;;;;;15.32;7.78;;;0.10;99.90;;;;;;6264581;22;20016;-68
2021/03/06 05:00:55;;;;;;;14.90;8.57;;;0.20;99.90;;;;;;6272527;22;20049;-68
2021/03/06 05:03:20;;;;;;;12.25;7.13;;;0.30;99.90;;;;;;6271264;22;20078;-67
2021/03/06 05:05:46;;;;;;;17.05;7.72;;;0.30;99.90;;;;;;6273169;22;20003;-67
2021/03/06 05:08:12;;;;;;;19.17;8.75;;;0.20;99.90;;;;;;6273195;22;20086;-67
2021/03/06 05:10:37;;;;;;;12.20;7.65;;;0.30;99.90;;;;;;6273002;22;20015;-68
2021/03/06 05:13:03;;;;;;;12.13;7.93;;;0.20;99.90;;;;;;6271884;22;20007;-68
2021/03/06 05:15:28;;;;;;;13.50;7.22;;;0.30;99.90;;;;;;6273462;22;20000;-67
2021/03/06 05:17:54;;;;;;;13.32;8.18;;;0.30;99.90;;;;;;6270938;22;20010;-67
2021/03/06 05:20:20;;;;;;;10.82;8.05;;;0.20;99.90;;;;;;6273490;22;20004;-67
2021/03/06 05:22:45;;;;;;;12.63;7.60;;;0.20;99.90;;;;;;6272016;22;20507;-67
2021/03/06 05:25:11;;;;;;;14.73;8.15;;;0.00;99.90;;;;;;6272332;22;20437;-67
2021/03/06 05:27:37;;;;;;;14.82;7.63;;;0.00;99.90;;;;;;6273382;22;20078;-68
2021/03/06 05:30:03;;;;;;;14.13;7.88;;;0.00;99.90;;;;;;6271330;22;20512;-67
2021/03/06 05:32:29;;;;;;;14.82;8.30;;;-0.10;99.90;;;;;;6273849;22;20004;-67
2021/03/06 05:34:55;;;;;;;12.45;8.73;;;-0.10;99.90;;;;;;6272007;22;20481;-67
2021/03/06 05:37:20;;;;;;;15.95;8.90;;;-0.20;99.90;;;;;;6273196;22;20427;-66
2021/03/06 05:39:46;;;;;;;15.40;8.88;;;-0.20;99.90;;;;;;6272154;22;20054;-67
2021/03/06 05:42:12;;;;;;;19.10;8.18;;;-0.30;99.90;;;;;;6273442;22;20428;-67
2021/03/06 05:44:38;;;;;;;14.55;8.52;;;-0.20;99.90;;;;;;6272560;22;20377;-67
2021/03/06 05:47:04;;;;;;;16.45;8.80;;;-0.20;99.90;;;;;;6271942;22;20080;-67
2021/03/06 05:49:31;;;;;;;13.48;7.72;;;-0.20;99.90;;;;;;6273420;22;20019;-68
2021/03/06 05:52:00;;;;;;;13.73;8.15;;;-0.30;99.90;;;;;;6273148;22;20102;-67
2021/03/06 05:54:27;;;;;;;16.65;8.13;;;-0.40;99.90;;;;;;6272806;22;20007;-67
2021/03/06 05:56:54;;;;;;;13.32;8.20;;;-0.40;99.90;;;;;;6273609;22;20004;-67
2021/03/06 05:59:23;;;;;;;19.27;8.25;;;-0.40;99.90;;;;;;6266300;22;20004;-67
2021/03/06 06:01:49;;;;;;;15.82;8.25;;;-0.40;99.90;;;;;;6269845;22;20004;-67
2021/03/06 06:04:16;;;;;;;18.05;8.65;;;-0.40;99.90;;;;;;6272241;22;20072;-67
2021/03/06 06:06:43;;;;;;;12.23;9.02;;;-0.40;99.90;;;;;;6268168;22;20008;-66
2021/03/06 06:09:09;;;;;;;17.83;8.52;;;-0.40;99.90;;;;;;6271361;22;20034;-67
2021/03/06 06:11:35;;;;;;;17.02;9.77;;;-0.20;99.90;;;;;;6273713;22;20461;-66
2021/03/06 06:14:04;;;;;;;12.10;9.05;;;-0.30;99.90;;;;;;6270533;22;20011;-67
2021/03/06 06:16:30;;;;;;;19.70;9.30;;;-0.30;99.90;;;;;;6272165;22;20425;-67
2021/03/06 06:18:56;;;;;;;16.17;8.77;;;-0.30;99.90;;;;;;6270413;22;20058;-66
2021/03/06 06:21:47;;;;;;;14.60;8.93;;;-0.30;99.90;;;;;;6272660;22;20008;-66
2021/03/06 06:24:14;;;;;;;15.48;8.50;;;-0.30;99.90;;;;;;6272821;22;20061;-67
2021/03/06 06:26:52;;;;;;;16.20;8.77;;;-0.40;99.90;;;;;;6272940;22;20374;-67
2021/03/06 06:29:28;;;;;;;14.80;8.05;;;-0.40;99.90;;;;;;6271373;22;20026;-66
2021/03/06 06:31:54;;;;;;;20.20;8.52;;;-0.40;99.90;;;;;;6273029;22;20003;-68
2021/03/06 06:34:19;;;;;;;13.77;8.07;;;-0.60;99.90;;;;;;6271318;22;20064;-68
2021/03/06 06:36:45;;;;;;;13.07;8.35;;;-0.50;99.90;;;;;;6272844;22;20034;-69
2021/03/06 06:39:11;;;;;;;11.73;6.40;;;-0.50;99.90;;;;;;6269442;22;20084;-67
2021/03/06 06:41:49;;;;;;;12.57;7.50;;;-0.60;99.90;;;;;;6273070;22;20014;-66
2021/03/06 06:44:15;;;;;;;14.60;7.20;;;-0.50;99.90;;;;;;6272711;22;20432;-66
2021/03/06 06:46:41;;;;;;;11.98;7.55;;;-0.50;99.90;;;;;;6272291;22;20050;-66
2021/03/06 06:49:06;;;;;;;15.63;8.73;;;-0.50;99.90;;;;;;6272717;22;20053;-66
2021/03/06 06:51:32;;;;;;;18.13;8.48;;;-0.40;99.90;;;;;;6272443;22;20003;-66
2021/03/06 06:54:13;;;;;;;12.02;7.43;;;-0.40;99.90;;;;;;6272321;22;20129;-66
2021/03/06 06:56:40;;;;;;;13.38;8.07;;;-0.40;99.90;;;;;;6273137;22;20429;-67
2021/03/06 06:59:08;;;;;;;12.48;7.28;;;-0.30;99.90;;;;;;6271731;22;20076;-66
2021/03/06 07:01:36;;;;;;;12.48;7.55;;;-0.40;99.90;;;;;;6269525;22;20057;-68
2021/03/06 07:04:03;;;;;;;13.35;8.48;;;-0.40;99.90;;;;;;6272111;22;20336;-67
2021/03/06 07:06:29;;;;;;;13.77;7.95;;;-0.40;99.90;;;;;;6271285;22;20007;-67
2021/03/06 07:09:08;;;;;;;15.98;9.07;;;-0.30;99.90;;;;;;6267007;22;20011;-67
2021/03/06 07:11:35;;;;;;;16.95;9.80;;;-0.30;99.90;;;;;;6269030;22;20081;-68
2021/03/06 07:14:01;;;;;;;19.55;9.98;;;-0.20;99.90;;;;;;6270874;22;20000;-71
2021/03/06 07:16:59;;;;;;;19.17;9.18;;;-0.10;99.90;;;;;;6272065;22;20375;-71
2021/03/06 07:19:26;;;;;;;16.50;10.10;;;-0.10;99.90;;;;;;6272005;22;19999;-66
2021/03/06 07:21:52;;;;;;;17.33;10.60;;;0.00;99.90;;;;;;6274108;22;20012;-67
2021/03/06 07:24:18;;;;;;;21.65;10.98;;;0.00;99.90;;;;;;6274916;22;20000;-67
2021/03/06 07:26:44;;;;;;;18.83;11.55;;;0.00;99.90;;;;;;6267874;22;20384;-71
2021/03/06 07:29:10;;;;;;;19.70;11.02;;;0.10;99.90;;;;;;6273574;22;20040;-67
2021/03/06 07:31:38;;;;;;;19.17;11.43;;;0.10;99.90;;;;;;6274570;22;19996;-68
2021/03/06 07:34:08;;;;;;;23.10;11.40;;;0.20;99.90;;;;;;6275213;22;19999;-67
2021/03/06 07:36:36;;;;;;;22.40;12.00;;;0.30;99.90;;;;;;6274652;22;20063;-67
2021/03/06 07:39:05;;;;;;;26.40;13.65;;;0.30;99.90;;;;;;6273929;22;20084;-67
2021/03/06 07:41:36;;;;;;;20.77;10.23;;;0.40;99.90;;;;;;6273411;22;20004;-67
2021/03/06 07:44:03;;;;;;;19.75;10.52;;;0.40;99.90;;;;;;6269420;22;20014;-67
2021/03/06 07:46:29;;;;;;;25.55;13.48;;;0.40;99.90;;;;;;6274020;22;20359;-68
2021/03/06 07:48:59;;;;;;;26.30;12.88;;;0.50;99.90;;;;;;6271816;22;20011;-68
2021/03/06 07:51:26;;;;;;;24.00;12.65;;;0.60;99.90;;;;;;6268547;22;20065;-67
2021/03/06 07:53:52;;;;;;;21.77;11.93;;;0.60;99.90;;;;;;6271921;22;20008;-71
2021/03/06 07:56:18;;;;;;;27.25;13.07;;;0.80;99.90;;;;;;6273829;22;20015;-73
2021/03/06 07:58:51;;;;;;;18.52;11.10;;;1.00;99.90;;;;;;6272714;22;20017;-74
2021/03/06 08:01:24;;;;;;;20.73;12.40;;;1.10;99.90;;;;;;6273671;22;20003;-74
2021/03/06 08:03:49;;;;;;;22.23;11.93;;;1.20;99.90;;;;;;6271966;22;20011;-72
2021/03/06 08:06:20;;;;;;;21.13;12.52;;;1.30;99.90;;;;;;6272632;22;20075;-72
2021/03/06 08:08:46;;;;;;;17.60;11.88;;;1.50;99.90;;;;;;6272796;22;20452;-74
2021/03/06 08:11:15;;;;;;;21.65;11.35;;;1.60;99.90;;;;;;6272036;22;20011;-71
2021/03/06 08:13:53;;;;;;;18.35;11.10;;;1.80;99.90;;;;;;6269482;22;20062;-73
2021/03/06 08:16:22;;;;;;;20.58;13.10;;;2.00;99.90;;;;;;6271021;22;20428;-74
2021/03/06 08:19:13;;;;;;;21.75;12.35;;;2.20;99.90;;;;;;6264276;22;20011;-69
2021/03/06 08:21:41;;;;;;;22.35;12.15;;;2.50;99.90;;;;;;6258855;22;20341;-71
2021/03/06 08:24:15;;;;;;;19.30;11.82;;;2.60;99.90;;;;;;6273088;22;20000;-70
2021/03/06 08:26:42;;;;;;;20.85;12.00;;;2.70;99.90;;;;;;6272858;22;20000;-72
2021/03/06 08:29:20;;;;;;;24.33;12.27;;;2.90;99.90;;;;;;6270249;22;20019;-69
2021/03/06 08:31:46;;;;;;;20.83;11.32;;;3.10;99.90;;;;;;6270702;22;20004;-72
2021/03/06 08:34:41;;;;;;;19.88;11.30;;;3.20;99.90;;;;;;6272336;22;20409;-72
2021/03/06 08:37:13;;;;;;;18.40;10.93;;;3.30;99.90;;;;;;6273025;22;20004;-68
2021/03/06 08:39:45;;;;;;;20.85;11.50;;;3.40;99.90;;;;;;6269808;22;20428;-68
2021/03/06 08:42:17;;;;;;;22.38;11.93;;;3.50;99.90;;;;;;6273631;22;20448;-68
2021/03/06 08:44:43;;;;;;;27.20;11.80;;;3.70;99.90;;;;;;6272879;22;20003;-70
2021/03/06 08:47:10;;;;;;;23.38;11.65;;;3.90;99.90;;;;;;6273468;22;20344;-69
2021/03/06 08:49:36;;;;;;;19.45;11.85;;;4.00;99.90;;;;;;6269906;22;20325;-71
2021/03/06 08:52:03;;;;;;;14.20;11.45;;;4.10;99.90;;;;;;6272661;22;20004;-70
2021/03/06 08:54:37;;;;;;;16.80;11.38;;;4.20;99.90;;;;;;6273446;22;20034;-69
2021/03/06 08:57:03;;;;;;;21.30;11.43;;;4.30;99.90;;;;;;6271352;22;20004;-72
2021/03/06 08:59:39;;;;;;;18.67;11.32;;;4.40;99.90;;;;;;6269671;22;20057;-70
2021/03/06 09:02:34;;;;;;;17.05;11.10;;;4.50;99.90;;;;;;6271114;22;20006;-71
2021/03/06 09:05:08;;;;;;;15.98;10.90;;;4.50;99.90;;;;;;6252682;22;20074;-71
2021/03/06 09:07:40;;;;;;;28.33;12.23;;;4.50;99.90;;;;;;6271967;22;20027;-69
2021/03/06 09:10:35;;;;;;;21.43;10.37;;;4.50;99.90;;;;;;6272665;22;20082;-69
2021/03/06 09:13:05;;;;;;;21.20;11.27;;;4.40;99.90;;;;;;6270332;22;20272;-72
2021/03/06 09:16:00;;;;;;;17.63;10.60;;;4.60;99.90;;;;;;6272688;22;20023;-72
2021/03/06 09:18:37;;;;;;;23.15;10.98;;;5.00;99.90;;;;;;6261229;22;20034;-72
2021/03/06 09:21:23;;;;;;;17.20;9.90;;;5.20;99.90;;;;;;6271699;22;20008;-70
2021/03/06 09:23:52;;;;;;;16.15;9.77;;;5.40;99.90;;;;;;6272021;22;20427;-72
2021/03/06 09:26:26;;;;;;;19.00;10.32;;;5.50;99.90;;;;;;6270975;22;20011;-72
2021/03/06 09:28:55;;;;;;;18.98;9.73;;;5.50;99.90;;;;;;6270826;22;20019;-71
2021/03/06 09:31:27;;;;;;;25.40;11.32;;;5.60;99.90;;;;;;6271249;22;20404;-70
2021/03/06 09:33:53;;;;;;;;;;;5.80;99.90;;;;;;6273562;22;20478;-72
2021/03/06 09:36:21;;;;;;;20.30;11.82;;;5.90;99.90;;;;;;6272503;22;20297;-72
2021/03/06 09:38:52;;;;;;;20.90;11.07;;;6.10;99.90;;;;;;6270805;22;20003;-70
2021/03/06 09:41:21;;;;;;;19.60;10.77;;;6.10;99.90;;;;;;6271202;22;20050;-71
2021/03/06 09:43:55;;;;;;;18.63;10.57;;;6.00;99.90;;;;;;6266429;22;20368;-71
2021/03/06 09:46:24;;;;;;;21.30;9.68;;;6.00;99.90;;;;;;6271034;22;20046;-70
2021/03/06 09:48:57;;;;;;;16.70;9.95;;;5.90;99.90;;;;;;6269289;22;20007;-71
2021/03/06 09:51:36;;;;;;;19.42;10.80;;;5.90;99.90;;;;;;6270509;22;19999;-70
2021/03/06 09:54:02;;;;;;;30.63;10.93;;;5.90;99.90;;;;;;6267989;22;20657;-71
2021/03/06 09:56:28;;;;;;;16.15;10.30;;;6.00;99.90;;;;;;6272166;22;20128;-71
2021/03/06 09:59:01;;;;;;;19.23;11.00;;;6.20;99.90;;;;;;6269235;22;20003;-70
2021/03/06 10:01:28;;;;;;;14.93;10.07;;;6.30;99.90;;;;;;6272327;22;20004;-71
2021/03/06 10:03:54;;;;;;;23.08;10.38;;;6.60;99.90;;;;;;6272751;22;20007;-71
2021/03/06 10:06:30;;;;;;;19.23;10.55;;;6.70;99.90;;;;;;6270148;22;20436;-71
2021/03/06 10:09:00;;;;;;;17.45;10.18;;;6.80;99.90;;;;;;6271602;22;20011;-71
2021/03/06 10:11:49;;;;;;;24.35;9.55;;;6.90;99.90;;;;;;6271553;22;20000;-70
2021/03/06 10:14:20;;;;;;;20.10;10.95;;;7.10;99.90;;;;;;6271464;22;20344;-71
2021/03/06 10:17:01;;;;;;;22.20;10.68;;;7.20;99.90;;;;;;6272181;22;20031;-70
2021/03/06 10:19:29;;;;;;;28.48;12.93;;;7.40;99.90;;;;;;6272013;22;20004;-70
2021/03/06 10:22:03;;;;;;;23.42;12.48;;;7.30;99.90;;;;;;6271536;22;20011;-71
2021/03/06 10:24:30;;;;;;;24.17;13.40;;;7.30;99.90;;;;;;6272373;22;20004;-72
2021/03/06 10:26:57;;;;;;;17.63;11.00;;;7.30;99.90;;;;;;6269988;22;20445;-71
2021/03/06 10:29:25;;;;;;;14.73;8.60;;;7.40;99.90;;;;;;6270553;22;20068;-71
2021/03/06 10:32:00;;;;;;;15.88;8.95;;;7.40;99.90;;;;;;6272323;22;20488;-70
2021/03/06 10:34:29;;;;;;;16.35;8.02;;;7.20;99.90;;;;;;6271126;22;20004;-72
2021/03/06 10:37:25;;;;;;;11.80;7.10;;;7.30;99.90;;;;;;6270920;22;20337;-72
2021/03/06 10:40:03;;;;;;;13.23;6.50;;;7.20;99.90;;;;;;6243973;22;20007;-70
2021/03/06 10:42:44;;;;;;;15.48;7.00;;;7.20;99.90;;;;;;6272559;22;20129;-71
2021/03/06 10:45:26;;;;;;;13.10;7.25;;;7.30;99.90;;;;;;6271773;22;20008;-70
2021/03/06 10:47:55;;;;;;;13.33;6.27;;;7.30;99.90;;;;;;6272422;22;20039;-72
2021/03/06 10:50:39;;;;;;;15.20;6.90;;;7.30;99.90;;;;;;6265507;22;20638;-72
2021/03/06 10:53:21;;;;;;;10.18;6.60;;;7.20;99.90;;;;;;6272384;22;20001;-72
2021/03/06 10:55:49;;;;;;;12.60;7.00;;;7.40;99.90;;;;;;6275100;22;19996;-71
2021/03/06 10:58:15;;;;;;;18.80;7.00;;;7.70;99.90;;;;;;6272983;22;20431;-71
2021/03/06 11:00:43;;;;;;;11.70;7.00;;;7.70;99.90;;;;;;6272525;22;20035;-70
2021/03/06 11:03:10;;;;;;;14.90;7.18;;;7.80;99.90;;;;;;6273551;22;20004;-70
2021/03/06 11:05:38;;;;;;;13.50;5.88;;;7.60;99.90;;;;;;6274452;22;20007;-71
2021/03/06 11:08:20;;;;;;;11.20;5.97;;;7.80;99.90;;;;;;6273817;22;20090;-71
2021/03/06 11:10:48;;;;;;;13.68;6.20;;;7.90;99.90;;;;;;6272555;22;20014;-71
2021/03/06 11:13:14;;;;;;;11.10;6.55;;;7.80;99.90;;;;;;6273322;22;20103;-71
2021/03/06 11:15:51;;;;;;;10.57;5.20;;;8.00;99.90;;;;;;6274883;22;20008;-72
2021/03/06 11:18:18;;;;;;;10.20;4.38;;;8.10;99.90;;;;;;6273153;22;20004;-69
2021/03/06 11:20:44;;;;;;;10.02;4.60;;;8.00;99.90;;;;;;6272393;22;20105;-70
2021/03/06 11:23:11;;;;;;;8.73;4.72;;;8.20;99.90;;;;;;6273804;22;20011;-71
2021/03/06 11:25:37;;;;;;;8.75;4.45;;;8.10;99.90;;;;;;6274207;22;20010;-70
2021/03/06 11:28:05;;;;;;;11.38;4.53;;;8.00;99.90;;;;;;6272902;22;20035;-74
2021/03/06 11:30:43;;;;;;;6.82;4.47;;;7.70;99.90;;;;;;6271995;22;20034;-73
2021/03/06 11:33:10;;;;;;;9.38;6.38;;;7.60;99.90;;;;;;6273990;22;20016;-73
2021/03/06 11:35:36;;;;;;;13.95;10.27;;;7.70;99.90;;;;;;6273531;22;20000;-73
2021/03/06 11:38:03;;;;;;;10.18;7.43;;;7.80;99.90;;;;;;6272502;22;20004;-73
2021/03/06 11:40:32;;;;;;;18.13;13.68;;;7.80;99.90;;;;;;6272974;22;20007;-73
2021/03/06 11:42:59;;;;;;;15.68;13.43;;;7.90;99.90;;;;;;6270936;22;19999;-73
2021/03/06 11:45:25;;;;;;;13.90;8.82;;;7.90;99.90;;;;;;6274169;22;20007;-73
2021/03/06 11:47:52;;;;;;;14.07;6.63;;;7.80;99.90;;;;;;6273467;22;20031;-73
2021/03/06 11:50:21;;;;;;;8.05;6.45;;;7.70;99.90;;;;;;6272894;22;19999;-73
2021/03/06 11:52:47;;;;;;;10.93;6.15;;;7.90;99.90;;;;;;6269296;22;20007;-69
2021/03/06 11:55:14;;;;;;;8.35;5.05;;;8.00;99.90;;;;;;6273709;22;20095;-70
2021/03/06 11:57:41;;;;;;;8.80;5.38;;;7.90;99.90;;;;;;6271406;22;20026;-72
2021/03/06 12:00:14;;;;;;;6.97;5.75;;;8.10;99.90;;;;;;6272754;22;19996;-73
2021/03/06 12:02:40;;;;;;;8.82;4.80;;;8.20;99.90;;;;;;6272687;22;20007;-72
2021/03/06 12:05:10;;;;;;;8.85;5.03;;;8.30;99.90;;;;;;6274461;22;19999;-72
2021/03/06 12:07:36;;;;;;;7.53;3.90;;;8.30;99.90;;;;;;6270563;22;20007;-73
2021/03/06 12:10:03;;;;;;;6.07;3.97;;;8.30;99.90;;;;;;6268998;22;20320;-73
2021/03/06 12:12:28;;;;;;;4.82;3.85;;;8.30;99.90;;;;;;6272361;22;20134;-71
2021/03/06 12:14:54;;;;;;;5.07;4.00;;;8.20;99.90;;;;;;6255624;22;20440;-70
2021/03/06 12:17:20;;;;;;;7.05;4.22;;;8.40;99.90;;;;;;6265965;22;19999;-70
2021/03/06 12:19:45;;;;;;;7.55;4.63;;;8.50;99.90;;;;;;6271124;22;20053;-71
2021/03/06 12:22:11;;;;;;;6.82;3.60;;;8.40;99.90;;;;;;6273240;22;20511;-71
2021/03/06 12:24:36;;;;;;;8.82;3.40;;;8.00;99.90;;;;;;6273440;22;20003;-70
2021/03/06 12:27:02;;;;;;;6.60;3.60;;;8.10;99.90;;;;;;6269220;22;20035;-71
2021/03/06 12:29:28;;;;;;;9.15;4.72;;;8.20;99.90;;;;;;6272606;22;20137;-71
2021/03/06 12:31:54;;;;;;;6.95;4.15;;;8.40;99.90;;;;;;6271457;22;20007;-69
2021/03/06 12:34:20;;;;;;;6.80;4.05;;;8.30;99.90;;;;;;6273197;22;20049;-71
2021/03/06 12:36:46;;;;;;;4.18;3.30;;;8.10;99.90;;;;;;6270097;22;20011;-69
2021/03/06 12:39:12;;;;;;;7.18;3.92;;;8.10;99.90;;;;;;6272176;22;20000;-69
2021/03/06 12:41:38;;;;;;;5.93;3.92;;;7.90;99.90;;;;;;6272713;22;20010;-70
2021/03/06 12:44:05;;;;;;;8.50;3.67;;;8.10;99.90;;;;;;6270680;22;20049;-69
2021/03/06 12:46:31;;;;;;;6.53;4.07;;;8.20;99.90;;;;;;6273048;22;19996;-69
2021/03/06 12:48:58;;;;;;;8.60;4.00;;;8.10;99.90;;;;;;6271592;22;20023;-69
2021/03/06 12:51:24;;;;;;;9.68;3.88;;;8.10;99.90;;;;;;6272528;22;20094;-69
2021/03/06 12:53:49;;;;;;;5.90;3.90;;;8.20;99.90;;;;;;6270139;22;20536;-69
2021/03/06 12:56:15;;;;;;;6.40;3.30;;;8.20;99.90;;;;;;6270959;22;20027;-69